Time;durP1;ratioP1;P1;durP2;ratioP2;P2;SDS_P1;SDS_P2;PMS_P1;PMS_P2;Temp;Humidity;BMP_temperature;BMP_pressure;BME280_temperature;BME280_humidity;BME280_pressure;Samples;Min_cycle;Max_cycle;Signal;HPM_P1;HPM_P2
2023/03/13 00:01:25;;;;;;;1.15;1.15;;;;;;;8.54;39.67;100142.25;5323671;26;33870;-84
2023/03/13 00:03:54;;;;;;;0.65;0.65;;;;;;;8.33;40.21;100146.34;5323553;26;34118;-84
2023/03/13 00:06:25;;;;;;;0.20;0.10;;;;;;;8.03;40.99;100137.56;5305976;26;33017;-84
2023/03/13 00:08:55;;;;;;;0.10;0.10;;;;;;;8.13;41.23;100139.03;5305613;26;34155;-84
2023/03/13 00:11:25;;;;;;;0.37;0.37;;;;;;;8.22;41.18;100138.78;5324165;26;34267;-84
2023/03/13 00:13:56;;;;;;;3.30;0.68;;;;;;;8.22;41.47;100151.94;5287177;26;31976;-84
2023/03/13 00:16:26;;;;;;;0.35;0.35;;;;;;;8.54;41.30;100129.09;5287217;26;32500;-84
2023/03/13 00:18:55;;;;;;;4.00;1.58;;;;;;;8.50;42.00;100122.19;5304597;26;32942;-84
2023/03/13 00:21:25;;;;;;;0.35;0.35;;;;;;;7.80;44.32;100130.31;5305309;26;34194;-84
2023/03/13 00:23:54;;;;;;;1.20;0.75;;;;;;;8.29;43.36;100118.41;5305260;26;34314;-84
2023/03/13 00:26:23;;;;;;;0.17;0.17;;;;;;;8.58;42.70;100121.03;5304975;26;34666;-84
2023/03/13 00:28:52;;;;;;;0.00;0.00;;;;;;;7.98;43.47;100127.19;5286878;26;34480;-83
2023/03/13 00:31:29;;;;;;;0.62;0.62;;;;;;;7.35;44.81;100122.69;5323746;26;33858;-84
2023/03/13 00:34:00;;;;;;;0.82;0.70;;;;;;;7.83;43.93;100119.69;5304797;26;32074;-84
2023/03/13 00:36:33;;;;;;;4.65;2.40;;;;;;;7.21;45.51;100127.44;5287795;26;32438;-84
2023/03/13 00:39:02;;;;;;;0.30;0.30;;;;;;;7.39;45.87;100124.34;5305219;26;33684;-84
2023/03/13 00:41:35;;;;;;;0.57;0.57;;;;;;;7.31;45.41;100116.69;5305338;26;32472;-84
2023/03/13 00:44:04;;;;;;;0.62;0.62;;;;;;;7.38;45.75;100113.00;5287569;26;32879;-84
2023/03/13 00:46:32;;;;;;;0.90;0.90;;;;;;;7.40;46.06;100105.06;5304330;26;32659;-84
2023/03/13 00:49:00;;;;;;;0.68;0.40;;;;;;;7.56;45.31;100110.78;5305603;26;34454;-84
2023/03/13 00:51:28;;;;;;;0.62;0.35;;;;;;;7.72;44.69;100106.84;5287124;26;32561;-84
2023/03/13 00:54:00;;;;;;;0.60;0.57;;;;;;;7.65;44.74;100105.31;5312501;26;32159;-84
2023/03/13 00:56:28;;;;;;;0.00;0.00;;;;;;;7.78;44.60;100100.56;5305244;26;32867;-84
2023/03/13 00:58:58;;;;;;;0.30;0.30;;;;;;;7.40;45.43;100105.06;5287521;26;34015;-84
2023/03/13 01:01:31;;;;;;;0.28;0.28;;;;;;;7.66;44.65;100091.25;5286735;26;34083;-84
2023/03/13 01:04:03;;;;;;;0.52;0.52;;;;;;;7.84;44.62;100092.53;5305303;26;33543;-84
2023/03/13 01:06:34;;;;;;;0.10;0.10;;;;;;;7.78;44.32;100093.53;5323279;26;33896;-85
2023/03/13 01:09:04;;;;;;;0.00;0.00;;;;;;;7.42;45.45;100088.37;5305308;26;33481;-85
2023/03/13 01:11:34;;;;;;;1.40;1.35;;;;;;;7.45;45.32;100087.41;5305352;26;34483;-85
2023/03/13 01:14:04;;;;;;;1.12;1.10;;;;;;;7.72;44.87;100085.81;5305434;26;33987;-85
2023/03/13 01:16:34;;;;;;;1.98;0.70;;;;;;;8.25;43.90;100080.78;5305187;26;32493;-85
2023/03/13 01:19:08;;;;;;;1.55;1.45;;;;;;;8.02;44.42;100077.97;5287001;26;34571;-85
2023/03/13 01:21:41;;;;;;;0.10;0.10;;;;;;;7.89;44.74;100074.84;5305932;26;33187;-85
2023/03/13 01:24:09;;;;;;;0.62;0.62;;;;;;;8.37;43.86;100080.47;5305425;26;33433;-85
2023/03/13 01:26:36;;;;;;;0.98;0.98;;;;;;;8.61;43.15;100075.34;5323462;26;35043;-85
2023/03/13 01:29:04;;;;;;;1.35;1.25;;;;;;;8.72;42.96;100070.59;5286205;26;33300;-85
2023/03/13 01:31:33;;;;;;;0.70;0.65;;;;;;;8.66;42.87;100062.91;5305385;26;33972;-85
2023/03/13 01:34:10;;;;;;;1.85;1.08;;;;;;;8.40;43.23;100069.84;5323384;26;31906;-85
2023/03/13 01:36:38;;;;;;;0.45;0.45;;;;;;;8.49;43.91;100073.09;5323518;26;33220;-85
2023/03/13 01:39:06;;;;;;;0.50;0.50;;;;;;;8.40;44.44;100066.34;5286529;26;35670;-84
2023/03/13 01:41:37;;;;;;;0.98;0.98;;;;;;;8.51;44.14;100055.50;5305109;26;33175;-84
2023/03/13 01:44:05;;;;;;;0.60;0.60;;;;;;;8.90;42.74;100051.59;5323592;26;33476;-86
2023/03/13 01:46:36;;;;;;;0.35;0.25;;;;;;;8.31;44.22;100059.56;5287947;26;32886;-85
2023/03/13 01:49:09;;;;;;;2.25;0.85;;;;;;;8.34;44.06;100051.56;5323365;26;33083;-86
2023/03/13 01:51:42;;;;;;;1.20;1.10;;;;;;;8.61;43.69;100063.06;5323460;26;33118;-84
2023/03/13 01:54:20;;;;;;;0.15;0.15;;;;;;;8.93;42.57;100045.38;5313605;27;32314;-85
2023/03/13 01:56:51;;;;;;;0.00;0.00;;;;;;;8.87;42.75;100049.03;5292753;27;33617;-84
2023/03/13 01:59:24;;;;;;;1.27;0.60;;;;;;;8.52;44.04;100059.84;5301218;27;32928;-84
2023/03/13 02:01:56;;;;;;;2.10;0.57;;;;;;;8.58;44.06;100054.37;5283241;27;32955;-84
2023/03/13 02:04:27;;;;;;;0.43;0.43;;;;;;;8.39;43.71;100047.06;5301862;26;33407;-85
2023/03/13 02:06:57;;;;;;;0.00;0.00;;;;;;;8.99;42.18;100047.78;5305059;26;33209;-84
2023/03/13 02:09:28;;;;;;;0.00;0.00;;;;;;;9.07;42.19;100037.88;5305326;26;33633;-85
2023/03/13 02:12:14;;;;;;;0.15;0.15;;;;;;;8.64;42.86;100048.91;5304549;26;32748;-85
2023/03/13 02:14:43;;;;;;;1.55;1.45;;;;;;;8.65;43.65;100048.03;5323176;26;33176;-84
2023/03/13 02:17:12;;;;;;;1.95;1.45;;;;;;;9.06;42.25;100049.28;5304915;26;33370;-83
2023/03/13 02:19:48;;;;;;;1.27;0.43;;;;;;;8.74;43.41;100042.47;5304903;26;33740;-83
2023/03/13 02:22:19;;;;;;;0.37;0.37;;;;;;;8.70;43.38;100041.72;5302619;26;34263;-84
2023/03/13 02:25:06;;;;;;;0.65;0.65;;;;;;;8.77;43.26;100042.34;5339056;26;34304;-85
2023/03/13 02:27:35;;;;;;;0.00;0.00;;;;;;;8.72;43.29;100031.13;5340434;26;33623;-85
2023/03/13 02:30:07;;;;;;;0.00;0.00;;;;;;;8.82;43.24;100027.28;5286591;26;32994;-84
2023/03/13 02:32:36;;;;;;;0.00;0.00;;;;;;;8.90;43.46;100042.81;5323625;26;32841;-85
2023/03/13 02:35:10;;;;;;;0.85;0.85;;;;;;;8.79;44.04;100040.56;5304495;26;34372;-84
2023/03/13 02:37:42;;;;;;;0.30;0.30;;;;;;;8.93;43.70;100046.22;5305259;26;34977;-84
2023/03/13 02:40:16;;;;;;;0.37;0.37;;;;;;;8.84;43.54;100043.91;5323533;26;33313;-84
2023/03/13 02:42:45;;;;;;;0.10;0.10;;;;;;;8.62;44.96;100053.38;5323832;26;33590;-84
2023/03/13 02:45:16;;;;;;;0.08;0.08;;;;;;;8.72;44.25;100049.53;5324123;26;31455;-85
2023/03/13 02:47:44;;;;;;;0.82;0.80;;;;;;;8.75;44.56;100044.19;5287601;26;32768;-84
2023/03/13 02:50:12;;;;;;;0.52;0.52;;;;;;;8.65;44.84;100037.50;5305931;26;33929;-85
2023/03/13 02:52:54;;;;;;;1.98;1.02;;;;;;;8.87;43.79;100042.91;5305533;26;34473;-84
2023/03/13 02:55:31;;;;;;;0.32;0.32;;;;;;;8.75;43.88;100054.72;5324506;26;33401;-84
2023/03/13 02:57:59;;;;;;;0.00;0.00;;;;;;;8.81;43.98;100049.25;5306118;26;34327;-85
2023/03/13 03:00:29;;;;;;;6.90;1.75;;;;;;;8.81;44.22;100048.41;5306043;26;32893;-85
2023/03/13 03:02:57;;;;;;;0.43;0.43;;;;;;;8.57;44.61;100068.47;5324085;26;33653;-85
2023/03/13 03:05:25;;;;;;;0.17;0.17;;;;;;;8.35;45.37;100070.84;5305379;26;34051;-85
2023/03/13 03:07:53;;;;;;;0.60;0.60;;;;;;;8.38;45.55;100069.03;5305742;26;33472;-85
2023/03/13 03:10:20;;;;;;;0.45;0.45;;;;;;;7.94;45.91;100076.44;5323565;26;33096;-85
2023/03/13 03:12:49;;;;;;;0.05;0.05;;;;;;;7.96;46.15;100066.72;5305834;26;34114;-85
2023/03/13 03:15:17;;;;;;;4.37;1.75;;;;;;;8.06;45.82;100069.09;5324091;26;33196;-85
2023/03/13 03:17:46;;;;;;;2.10;0.30;;;;;;;8.32;45.53;100056.03;5324277;26;33609;-84
2023/03/13 03:20:15;;;;;;;0.37;0.37;;;;;;;8.50;45.32;100054.66;5323881;26;34072;-84
2023/03/13 03:22:42;;;;;;;0.52;0.52;;;;;;;8.03;46.00;100054.28;5305715;26;33097;-84
2023/03/13 03:25:10;;;;;;;0.65;0.65;;;;;;;8.20;45.94;100051.13;5305769;26;33631;-84
2023/03/13 03:27:39;;;;;;;1.37;0.70;;;;;;;8.42;44.98;100056.66;5305993;26;34158;-84
2023/03/13 03:30:07;;;;;;;1.87;1.30;;;;;;;8.67;44.42;100067.25;5287989;26;33609;-84
2023/03/13 03:32:35;;;;;;;1.00;0.68;;;;;;;8.66;44.64;100065.53;5287544;26;32491;-84
2023/03/13 03:35:04;;;;;;;0.00;0.00;;;;;;;8.89;44.18;100057.78;5287617;26;33113;-84
2023/03/13 03:37:33;;;;;;;1.60;1.00;;;;;;;8.27;46.22;100063.22;5306180;26;33407;-84
2023/03/13 03:40:04;;;;;;;0.00;0.00;;;;;;;8.13;46.41;100066.25;5288372;26;34762;-84
2023/03/13 03:42:33;;;;;;;1.80;0.62;;;;;;;8.15;46.39;100047.78;5306136;26;32948;-84
2023/03/13 03:45:01;;;;;;;0.73;0.70;;;;;;;8.25;45.72;100056.25;5324790;26;33491;-85
2023/03/13 03:47:30;;;;;;;0.03;0.03;;;;;;;7.97;46.62;100054.44;5324281;26;34040;-85
2023/03/13 03:49:59;;;;;;;0.00;0.00;;;;;;;7.91;46.71;100065.13;5306460;26;33618;-83
2023/03/13 03:52:26;;;;;;;2.65;0.22;;;;;;;8.15;45.94;100074.06;5323473;26;34224;-83
2023/03/13 03:54:54;;;;;;;0.47;0.47;;;;;;;7.87;46.25;100069.59;5323523;26;32857;-84
2023/03/13 03:57:23;;;;;;;0.65;0.47;;;;;;;8.12;46.15;100074.19;5324125;26;33561;-83
2023/03/13 03:59:50;;;;;;;0.25;0.25;;;;;;;7.85;46.69;100076.69;5287444;26;33406;-84
2023/03/13 04:02:18;;;;;;;0.20;0.20;;;;;;;7.42;47.70;100077.84;5305765;26;34995;-84
2023/03/13 04:04:47;;;;;;;0.17;0.17;;;;;;;7.56;47.78;100084.53;5306192;26;33080;-84
2023/03/13 04:07:17;;;;;;;0.20;0.20;;;;;;;7.58;48.01;100083.56;5288501;26;32249;-84
2023/03/13 04:09:45;;;;;;;1.30;1.20;;;;;;;7.60;47.78;100087.03;5287705;26;33482;-84
2023/03/13 04:12:14;;;;;;;0.20;0.20;;;;;;;7.62;47.69;100089.59;5305654;26;34304;-84
2023/03/13 04:14:43;;;;;;;1.12;0.75;;;;;;;7.93;46.83;100090.50;5342551;26;34614;-84
2023/03/13 04:17:14;;;;;;;0.17;0.17;;;;;;;7.84;47.25;100090.75;5323578;26;33044;-85
2023/03/13 04:19:44;;;;;;;0.52;0.52;;;;;;;8.04;46.75;100087.53;5323545;26;33340;-84
2023/03/13 04:22:12;;;;;;;0.43;0.43;;;;;;;7.74;47.22;100091.91;5305532;26;33491;-85
2023/03/13 04:24:41;;;;;;;0.70;0.55;;;;;;;8.06;46.71;100088.34;5306407;26;31864;-83
2023/03/13 04:27:09;;;;;;;1.02;0.98;;;;;;;8.07;46.55;100092.72;5304980;26;34609;-84
2023/03/13 04:29:37;;;;;;;0.43;0.43;;;;;;;8.39;45.56;100094.41;5324185;26;33415;-84
2023/03/13 04:32:06;;;;;;;0.10;0.10;;;;;;;8.55;45.44;100097.47;5305487;26;34409;-84
2023/03/13 04:34:34;;;;;;;0.20;0.10;;;;;;;8.26;46.33;100106.22;5287548;26;32935;-83
2023/03/13 04:37:02;;;;;;;0.88;0.52;;;;;;;8.05;46.66;100112.06;5305085;26;33346;-83
2023/03/13 04:39:30;;;;;;;0.98;0.98;;;;;;;8.22;45.81;100109.84;5323803;26;33950;-84
2023/03/13 04:42:01;;;;;;;0.37;0.37;;;;;;;7.85;47.33;100112.63;5306630;26;33429;-84
2023/03/13 04:44:31;;;;;;;1.35;1.25;;;;;;;8.04;46.58;100102.47;5287319;26;33637;-85
2023/03/13 04:47:00;;;;;;;4.78;0.35;;;;;;;7.85;47.42;100107.38;5324199;26;33742;-85
2023/03/13 04:49:29;;;;;;;0.20;0.20;;;;;;;7.68;48.18;100095.53;5305630;26;34388;-85
2023/03/13 04:51:57;;;;;;;0.10;0.10;;;;;;;7.76;47.73;100097.97;5305429;26;32587;-85
2023/03/13 04:54:26;;;;;;;0.20;0.20;;;;;;;7.62;47.97;100094.84;5323926;26;33359;-84
2023/03/13 04:56:55;;;;;;;0.10;0.10;;;;;;;7.83;47.23;100103.91;5305625;26;33466;-85
2023/03/13 04:59:23;;;;;;;0.50;0.50;;;;;;;7.88;46.88;100116.06;5305802;26;33474;-85
2023/03/13 05:01:52;;;;;;;0.10;0.10;;;;;;;7.94;46.58;100122.91;5324312;26;33668;-84
2023/03/13 05:04:21;;;;;;;1.27;1.17;;;;;;;8.14;45.89;100122.34;5305415;26;32721;-84
2023/03/13 05:06:50;;;;;;;1.17;0.47;;;;;;;7.83;46.26;100120.56;5324173;26;33650;-85
2023/03/13 05:09:20;;;;;;;18.33;1.35;;;;;;;7.74;46.82;100128.72;5305499;26;34219;-86
2023/03/13 05:11:49;;;;;;;0.68;0.68;;;;;;;8.10;45.91;100115.44;5323872;26;33757;-86
2023/03/13 05:14:18;;;;;;;0.10;0.10;;;;;;;8.14;45.68;100119.69;5323789;26;33865;-86
2023/03/13 05:16:47;;;;;;;0.32;0.32;;;;;;;8.12;45.77;100116.28;5323847;26;33607;-86
2023/03/13 05:19:21;;;;;;;0.52;0.50;;;;;;;8.22;45.74;100120.34;5324602;26;34618;-85
2023/03/13 05:21:55;;;;;;;0.15;0.15;;;;;;;8.13;45.79;100129.38;5323202;26;32995;-86
2023/03/13 05:24:24;;;;;;;0.37;0.37;;;;;;;8.05;45.96;100130.47;5323812;26;34688;-86
2023/03/13 05:26:54;;;;;;;0.45;0.45;;;;;;;8.11;46.00;100130.31;5304658;26;33845;-86
2023/03/13 05:29:24;;;;;;;0.13;0.13;;;;;;;7.68;46.38;100132.34;5322675;26;34033;-85
2023/03/13 05:31:54;;;;;;;0.00;0.00;;;;;;;8.00;45.80;100143.75;5287592;26;32957;-86
2023/03/13 05:34:23;;;;;;;0.55;0.50;;;;;;;7.89;45.89;100136.16;5323714;26;33226;-84
2023/03/13 05:36:52;;;;;;;0.80;0.80;;;;;;;7.74;46.27;100139.22;5323494;26;32770;-84
2023/03/13 05:39:22;;;;;;;0.45;0.45;;;;;;;7.91;45.82;100129.09;5287466;26;33386;-84
2023/03/13 05:41:50;;;;;;;0.68;0.68;;;;;;;7.80;45.73;100136.41;5284546;26;34295;-84
2023/03/13 05:44:19;;;;;;;0.30;0.30;;;;;;;8.07;45.43;100139.19;5321561;26;33318;-84
2023/03/13 05:46:48;;;;;;;0.77;0.68;;;;;;;7.90;45.82;100140.53;5303175;26;33878;-84
2023/03/13 05:49:16;;;;;;;0.35;0.35;;;;;;;7.96;45.64;100137.72;5301816;26;33373;-84
2023/03/13 05:51:47;;;;;;;1.20;1.08;;;;;;;7.34;46.60;100142.88;5303615;26;33656;-83
2023/03/13 05:54:15;;;;;;;1.52;0.95;;;;;;;7.70;46.31;100142.84;5266691;26;32481;-85
2023/03/13 05:56:47;;;;;;;0.13;0.13;;;;;;;7.79;45.76;100139.97;5320764;26;33957;-84
2023/03/13 05:59:21;;;;;;;11.02;1.25;;;;;;;7.86;45.24;100138.00;5286804;26;33944;-84
2023/03/13 06:01:52;;;;;;;0.28;0.28;;;;;;;7.80;46.14;100144.31;5284845;26;33510;-84
2023/03/13 06:04:23;;;;;;;0.43;0.43;;;;;;;7.21;46.36;100151.06;5304521;26;33925;-84
2023/03/13 06:06:53;;;;;;;0.28;0.28;;;;;;;7.36;46.24;100141.06;5285688;26;33289;-85
2023/03/13 06:09:30;;;;;;;2.08;1.10;;;;;;;6.96;46.93;100146.41;5304869;26;34068;-83
2023/03/13 06:11:58;;;;;;;0.10;0.10;;;;;;;7.34;46.52;100136.75;5285584;26;33651;-83
2023/03/13 06:14:27;;;;;;;0.85;0.62;;;;;;;7.06;46.56;100139.19;5304025;26;33371;-84
2023/03/13 06:16:55;;;;;;;0.00;0.00;;;;;;;7.56;45.72;100135.31;5304076;26;34309;-84
2023/03/13 06:19:24;;;;;;;0.00;0.00;;;;;;;7.32;45.67;100128.91;5340429;26;34460;-83
2023/03/13 06:21:52;;;;;;;0.65;0.65;;;;;;;7.26;45.84;100123.78;5301843;26;32987;-83
2023/03/13 06:24:20;;;;;;;0.82;0.70;;;;;;;7.41;45.75;100133.94;5319695;26;33324;-83
2023/03/13 06:26:50;;;;;;;0.45;0.45;;;;;;;7.87;45.13;100134.47;5301550;26;33267;-83
2023/03/13 06:29:18;;;;;;;0.03;0.03;;;;;;;7.58;45.80;100133.50;5283795;26;33309;-83
2023/03/13 06:31:46;;;;;;;0.52;0.52;;;;;;;7.91;44.73;100123.84;5302264;26;35296;-83
2023/03/13 06:34:15;;;;;;;0.57;0.37;;;;;;;8.05;44.79;100125.22;5320196;26;33241;-83
2023/03/13 06:36:43;;;;;;;0.40;0.40;;;;;;;7.90;44.58;100118.63;5301762;26;34588;-83
2023/03/13 06:39:12;;;;;;;0.90;0.90;;;;;;;8.01;44.78;100123.59;5322828;26;32938;-83
2023/03/13 06:41:39;;;;;;;0.40;0.40;;;;;;;8.16;44.60;100126.62;5286251;26;34806;-83
2023/03/13 06:44:09;;;;;;;0.90;0.90;;;;;;;7.87;44.00;100132.72;5303883;26;32440;-83
2023/03/13 06:46:41;;;;;;;1.35;1.27;;;;;;;7.79;44.62;100139.97;5323914;26;33364;-83
2023/03/13 06:49:09;;;;;;;0.28;0.28;;;;;;;7.79;44.51;100132.06;5304351;26;33245;-83
2023/03/13 06:51:37;;;;;;;0.28;0.28;;;;;;;7.85;44.63;100137.16;5322311;26;34162;-83
2023/03/13 06:54:05;;;;;;;0.10;0.10;;;;;;;8.38;43.48;100133.94;5304206;26;32875;-83
2023/03/13 06:56:34;;;;;;;2.20;1.17;;;;;;;7.85;44.48;100131.03;5320105;26;32946;-83
2023/03/13 06:59:03;;;;;;;0.15;0.15;;;;;;;7.83;44.47;100136.34;5301871;26;33282;-83
2023/03/13 07:01:39;;;;;;;2.00;1.12;;;;;;;7.85;44.02;100129.28;5340830;26;35459;-83
2023/03/13 07:04:11;;;;;;;1.48;0.55;;;;;;;7.93;44.02;100135.19;5286353;26;32685;-83
2023/03/13 07:06:40;;;;;;;0.70;0.70;;;;;;;8.24;44.09;100126.41;5304165;26;32912;-83
2023/03/13 07:09:10;;;;;;;0.22;0.22;;;;;;;8.81;42.72;100124.75;5322429;26;33491;-82
2023/03/13 07:11:42;;;;;;;1.75;1.30;;;;;;;8.32;43.44;100124.44;5287406;26;33758;-82
2023/03/13 07:14:12;;;;;;;3.00;1.00;;;;;;;8.53;43.27;100127.38;5304647;26;32745;-82
2023/03/13 07:16:45;;;;;;;2.85;1.12;;;;;;;8.20;44.19;100130.03;5287896;26;32467;-83
2023/03/13 07:19:15;;;;;;;0.25;0.25;;;;;;;8.69;43.16;100123.38;5303099;26;34137;-83
2023/03/13 07:21:43;;;;;;;0.43;0.43;;;;;;;8.90;42.44;100119.19;5319417;26;32759;-83
2023/03/13 07:24:12;;;;;;;1.10;0.85;;;;;;;8.74;42.88;100124.09;5283257;26;32716;-83
2023/03/13 07:26:40;;;;;;;0.00;0.00;;;;;;;8.84;42.95;100117.63;5318739;26;35049;-83
2023/03/13 07:29:24;;;;;;;5.70;0.50;;;;;;;9.14;42.11;100114.91;5304680;26;33354;-83
2023/03/13 07:31:52;;;;;;;0.20;0.20;;;;;;;9.42;41.67;100113.06;5284386;26;33743;-83
2023/03/13 07:34:27;;;;;;;0.10;0.10;;;;;;;9.19;41.75;100118.25;5320695;26;33378;-84
2023/03/13 07:37:01;;;;;;;0.10;0.10;;;;;;;9.20;41.51;100109.44;5322282;26;33716;-83
2023/03/13 07:39:29;;;;;;;1.40;0.85;;;;;;;9.37;41.29;100109.75;5321494;26;33699;-83
2023/03/13 07:41:58;;;;;;;0.65;0.57;;;;;;;9.21;41.99;100105.91;5284203;26;33700;-84
2023/03/13 07:44:29;;;;;;;1.65;1.15;;;;;;;9.07;41.71;100105.47;5321214;26;33278;-83
2023/03/13 07:47:01;;;;;;;0.65;0.65;;;;;;;9.55;41.45;100104.75;5304738;26;33847;-83
2023/03/13 07:49:30;;;;;;;;;;;;;;;9.90;41.03;100104.34;5305563;26;33587;-83
2023/03/13 07:52:04;;;;;;;1.80;0.80;;;;;;;9.94;40.24;100094.56;5305241;26;34261;-83
2023/03/13 07:54:33;;;;;;;0.17;0.17;;;;;;;9.88;40.26;100087.75;5304755;26;32419;-82
2023/03/13 07:57:02;;;;;;;0.55;0.47;;;;;;;9.52;39.97;100084.63;5322934;26;33238;-83
2023/03/13 07:59:32;;;;;;;1.15;0.98;;;;;;;10.02;39.66;100079.31;5304931;26;33400;-83
2023/03/13 08:02:02;;;;;;;0.40;0.40;;;;;;;10.16;39.04;100076.16;5304930;26;32336;-82
2023/03/13 08:04:30;;;;;;;0.55;0.50;;;;;;;10.29;38.15;100079.22;5322936;26;33876;-83
2023/03/13 08:09:34;;;;;;;0.30;0.30;;;;;;;9.79;39.41;100074.87;5324720;26;33694;-83
2023/03/13 08:12:03;;;;;;;0.52;0.40;;;;;;;9.84;38.19;100070.31;5304812;26;32725;-82
2023/03/13 08:14:32;;;;;;;0.47;0.47;;;;;;;10.38;37.88;100061.25;5304885;26;32775;-83
2023/03/13 08:17:02;;;;;;;0.20;0.20;;;;;;;10.28;37.26;100048.47;5305106;26;33119;-82
2023/03/13 08:19:32;;;;;;;1.75;0.60;;;;;;;10.57;37.15;100060.53;5322861;26;32583;-83
2023/03/13 08:22:02;;;;;;;0.45;0.43;;;;;;;10.49;37.24;100043.25;5305048;26;33604;-82
2023/03/13 08:27:05;;;;;;;1.23;1.15;;;;;;;10.55;36.54;100039.50;5322998;26;32466;-82
2023/03/13 08:29:33;;;;;;;0.13;0.13;;;;;;;10.47;36.87;100034.50;5304646;26;34831;-82
2023/03/13 08:32:01;;;;;;;0.00;0.00;;;;;;;10.93;35.80;100027.37;5323253;26;33479;-82
2023/03/13 08:34:30;;;;;;;0.15;0.13;;;;;;;11.32;35.97;100023.94;5304992;26;32554;-82
2023/03/13 08:37:01;;;;;;;3.83;0.85;;;;;;;11.01;35.11;100029.66;5304403;26;32202;-82
2023/03/13 08:39:29;;;;;;;0.65;0.25;;;;;;;10.76;36.58;100030.69;5323361;26;34104;-82
2023/03/13 08:41:59;;;;;;;0.00;0.00;;;;;;;11.22;35.69;100022.63;5322193;26;34835;-82
2023/03/13 08:44:28;;;;;;;0.50;0.50;;;;;;;11.30;35.54;100020.53;5324004;26;33260;-83
2023/03/13 08:46:59;;;;;;;0.88;0.57;;;;;;;11.39;35.70;100025.41;5305077;26;35445;-82
2023/03/13 08:49:28;;;;;;;0.75;0.75;;;;;;;11.68;35.33;100018.84;5306082;26;33152;-83
2023/03/13 08:51:56;;;;;;;0.98;0.73;;;;;;;12.10;34.36;100014.31;5321363;26;33655;-83
2023/03/13 08:54:24;;;;;;;0.47;0.47;;;;;;;11.99;34.32;100017.47;5302819;26;33064;-83
2023/03/13 08:56:52;;;;;;;0.47;0.47;;;;;;;11.95;33.47;100016.75;5301912;26;33705;-83
2023/03/13 08:59:21;;;;;;;0.17;0.17;;;;;;;11.27;34.81;100007.44;5284046;26;34452;-83
2023/03/13 09:01:49;;;;;;;1.65;0.52;;;;;;;11.37;34.86;100011.41;5320175;26;33472;-82
2023/03/13 09:04:18;;;;;;;4.45;0.70;;;;;;;11.82;34.64;100015.62;5302140;26;33719;-83
2023/03/13 09:06:47;;;;;;;0.10;0.10;;;;;;;11.68;34.11;100015.31;5320013;26;33360;-82
2023/03/13 09:09:15;;;;;;;0.20;0.20;;;;;;;12.09;33.82;99997.59;5320538;26;33311;-82
2023/03/13 09:11:44;;;;;;;0.10;0.10;;;;;;;11.82;34.06;99999.75;5319785;26;34056;-83
2023/03/13 09:14:11;;;;;;;0.10;0.10;;;;;;;11.78;33.73;99990.19;5283502;26;32328;-83
2023/03/13 09:16:39;;;;;;;0.25;0.25;;;;;;;11.98;34.28;99998.09;5300912;26;32730;-83
2023/03/13 09:19:08;;;;;;;0.10;0.10;;;;;;;12.43;32.79;99994.19;5320770;26;33944;-84
2023/03/13 09:21:42;;;;;;;0.13;0.13;;;;;;;12.69;32.51;99989.44;5320312;26;34172;-82
2023/03/13 09:24:15;;;;;;;0.17;0.17;;;;;;;12.80;32.56;99982.66;5319867;26;34145;-82
2023/03/13 09:26:44;;;;;;;0.37;0.30;;;;;;;12.77;32.78;99979.28;5301890;26;33179;-82
2023/03/13 09:29:32;;;;;;;2.17;0.52;;;;;;;12.79;33.14;99972.13;5308821;26;33636;-82
2023/03/13 09:32:00;;;;;;;0.57;0.52;;;;;;;12.83;33.34;99963.09;5319917;26;33047;-82
2023/03/13 09:34:29;;;;;;;0.52;0.43;;;;;;;13.13;33.58;99965.97;5320705;26;35197;-83
2023/03/13 09:37:00;;;;;;;0.85;0.85;;;;;;;13.50;32.36;99970.25;5302182;26;34621;-83
2023/03/13 09:39:28;;;;;;;1.75;1.65;;;;;;;13.81;32.49;99966.81;5302123;26;34721;-83
2023/03/13 09:42:08;;;;;;;0.47;0.35;;;;;;;14.16;31.10;99960.50;5302131;26;33387;-82
2023/03/13 09:44:46;;;;;;;0.30;0.30;;;;;;;14.53;31.01;99961.97;5302051;26;32661;-82
2023/03/13 09:47:31;;;;;;;0.35;0.35;;;;;;;14.65;30.76;99957.75;5302083;26;32674;-82
2023/03/13 09:50:11;;;;;;;0.57;0.57;;;;;;;14.58;29.84;99951.94;5301370;26;32795;-82
2023/03/13 09:52:40;;;;;;;0.68;0.45;;;;;;;15.08;30.26;99951.59;5283611;26;33854;-83
2023/03/13 09:55:23;;;;;;;0.57;0.57;;;;;;;14.24;30.52;99947.63;5320630;26;33471;-82
2023/03/13 09:58:20;;;;;;;0.10;0.10;;;;;;;15.03;30.54;99948.37;5280046;27;32830;-83
2023/03/13 10:00:57;;;;;;;0.43;0.43;;;;;;;15.48;30.12;99943.88;5316133;27;32518;-82
2023/03/13 10:03:38;;;;;;;1.12;0.88;;;;;;;15.52;29.36;99934.72;5317158;26;33660;-83
2023/03/13 10:06:19;;;;;;;0.60;0.60;;;;;;;14.65;29.53;99932.03;5301520;26;32761;-82
2023/03/13 10:08:48;;;;;;;8.25;1.45;;;;;;;14.93;30.61;99920.62;5319960;26;33248;-83
2023/03/13 10:11:23;;;;;;;0.43;0.20;;;;;;;14.99;29.65;99922.91;5320534;26;33356;-82
2023/03/13 10:14:12;;;;;;;0.45;0.35;;;;;;;15.33;29.82;99920.84;5320564;26;33175;-82
2023/03/13 10:16:43;;;;;;;0.75;0.62;;;;;;;15.95;29.26;99910.78;5301116;26;32747;-84
2023/03/13 10:19:20;;;;;;;1.02;0.93;;;;;;;16.30;28.64;99905.81;5320896;26;33596;-83
2023/03/13 10:21:51;;;;;;;0.13;0.13;;;;;;;15.86;28.54;99904.25;5301535;26;33142;-83
2023/03/13 10:24:31;;;;;;;0.93;0.28;;;;;;;15.84;28.55;99906.12;5301997;26;32921;-83
2023/03/13 10:27:03;;;;;;;4.18;0.70;;;;;;;15.80;29.15;99922.38;5320625;26;33709;-82
2023/03/13 10:29:32;;;;;;;0.62;0.40;;;;;;;15.48;28.93;99925.25;5320363;26;34454;-82
2023/03/13 10:32:03;;;;;;;0.50;0.50;;;;;;;15.78;29.70;99908.34;5301378;26;33277;-82
2023/03/13 10:34:54;;;;;;;0.60;0.60;;;;;;;15.76;28.94;99904.91;5320386;26;33598;-82
2023/03/13 10:37:32;;;;;;;0.43;0.35;;;;;;;15.87;28.49;99899.75;5320111;26;33573;-82
2023/03/13 10:40:14;;;;;;;3.03;0.22;;;;;;;15.39;29.11;99903.69;5283292;26;32976;-82
2023/03/13 10:42:44;;;;;;;0.15;0.15;;;;;;;16.31;28.32;99891.53;5319050;26;33323;-82
2023/03/13 10:45:19;;;;;;;1.27;1.15;;;;;;;16.03;28.50;99896.97;5283480;26;34046;-81
2023/03/13 10:48:12;;;;;;;0.37;0.37;;;;;;;16.49;27.86;99878.81;5303213;26;32972;-81
2023/03/13 10:50:45;;;;;;;1.52;0.45;;;;;;;16.50;27.71;99883.19;5319385;26;33901;-82
2023/03/13 10:56:18;;;;;;;0.40;0.40;;;;;;;16.81;27.53;99873.16;5339620;26;34700;-82
2023/03/13 10:58:50;;;;;;;14.00;0.75;;;;;;;16.83;27.61;99868.56;5298212;27;35234;-82
2023/03/13 11:01:18;;;;;;;0.65;0.65;;;;;;;16.89;28.34;99870.78;5316138;27;33530;-82
2023/03/13 11:03:47;;;;;;;0.85;0.85;;;;;;;17.09;27.58;99862.28;5317107;27;35252;-82
2023/03/13 11:06:26;;;;;;;0.40;0.40;;;;;;;16.82;27.94;99865.03;5298503;27;33876;-82
2023/03/13 11:09:12;;;;;;;0.40;0.40;;;;;;;17.35;27.96;99846.25;5317039;27;32696;-81
2023/03/13 11:11:51;;;;;;;0.32;0.25;;;;;;;17.08;27.98;99855.22;5320842;26;33925;-82
2023/03/13 11:14:24;;;;;;;0.60;0.60;;;;;;;17.10;27.95;99837.31;5302402;26;33344;-82
2023/03/13 11:17:04;;;;;;;1.15;0.93;;;;;;;17.38;27.91;99832.69;5320160;26;33438;-82
2023/03/13 11:19:39;;;;;;;1.10;0.98;;;;;;;17.56;27.72;99836.69;5303802;26;33955;-82
2023/03/13 11:22:17;;;;;;;1.00;0.85;;;;;;;17.80;27.75;99836.78;5339010;26;32670;-82
2023/03/13 11:25:04;;;;;;;4.78;2.37;;;;;;;17.38;28.24;99830.88;5302850;26;33089;-82
2023/03/13 11:27:50;;;;;;;1.20;0.47;;;;;;;17.31;28.31;99823.41;5298777;27;33812;-82
2023/03/13 11:30:43;;;;;;;1.62;1.25;;;;;;;17.21;29.51;99822.34;5298748;27;32856;-81
2023/03/13 11:33:24;;;;;;;1.50;1.27;;;;;;;17.71;28.38;99816.06;5316300;27;34371;-82
2023/03/13 11:35:53;;;;;;;0.62;0.62;;;;;;;17.70;27.64;99813.50;5298677;27;34658;-82
2023/03/13 11:39:00;;;;;;;1.55;0.30;;;;;;;17.69;28.52;99817.97;5298615;27;33478;-82
2023/03/13 11:41:38;;;;;;;1.33;1.23;;;;;;;17.35;28.50;99812.41;5253376;27;32357;-82
2023/03/13 11:44:27;;;;;;;2.17;0.98;;;;;;;17.87;28.04;99803.31;5253030;27;32992;-82
2023/03/13 11:47:08;;;;;;;1.05;0.95;;;;;;;18.02;28.67;99800.47;5268521;27;34783;-82
2023/03/13 11:49:45;;;;;;;3.70;0.68;;;;;;;18.43;27.58;99800.03;5298549;27;34481;-82
2023/03/13 11:52:32;;;;;;;0.10;0.10;;;;;;;18.47;27.97;99788.13;5279923;27;33339;-82
2023/03/13 11:58:29;;;;;;;0.75;0.75;;;;;;;18.91;27.74;99770.50;5263673;27;33073;-82
2023/03/13 12:01:16;;;;;;;1.30;1.20;;;;;;;18.84;27.31;99767.41;5297856;27;32943;-82
2023/03/13 12:06:40;;;;;;;3.17;0.98;;;;;;;18.98;26.88;99754.78;5297857;27;32838;-81